Time;durP1;ratioP1;P1;durP2;ratioP2;P2;SDS_P1;SDS_P2;PMS_P1;PMS_P2;Temp;Humidity;BMP_temperature;BMP_pressure;BME280_temperature;BME280_humidity;BME280_pressure;Samples;Min_cycle;Max_cycle;Signal;HPM_P1;HPM_P2
2023/07/07 00:01:17;;;;;;;14.00;5.80;;;;;;;24.33;100.00;100284.55;105694;1253;65613;-44
2023/07/07 00:03:45;;;;;;;15.50;5.80;;;;;;;24.35;100.00;100260.00;105691;1253;72634;-43
2023/07/07 00:06:13;;;;;;;11.20;5.90;;;;;;;24.35;100.00;100248.71;105731;1258;61699;-42
2023/07/07 00:08:40;;;;;;;13.70;5.80;;;;;;;24.33;100.00;100251.04;105646;1259;60410;-45
2023/07/07 00:11:08;;;;;;;15.60;5.70;;;;;;;24.28;100.00;100253.38;105658;1254;72607;-42
2023/07/07 00:13:36;;;;;;;11.90;5.60;;;;;;;24.20;100.00;100268.05;105647;1253;65180;-42
2023/07/07 00:16:04;;;;;;;14.60;5.50;;;;;;;24.12;100.00;100271.33;105626;1253;72600;-44
2023/07/07 00:18:32;;;;;;;20.70;6.20;;;;;;;24.03;100.00;100314.35;105735;1255;60544;-47
2023/07/07 00:21:00;;;;;;;21.90;5.90;;;;;;;23.96;100.00;100341.40;105621;1253;60414;-43
2023/07/07 00:23:29;;;;;;;11.70;6.00;;;;;;;23.90;100.00;100352.25;105618;1253;72665;-47
2023/07/07 00:26:05;;;;;;;11.70;5.80;;;;;;;23.85;100.00;100364.44;105695;1253;65238;-47
2023/07/07 00:28:33;;;;;;;11.80;6.10;;;;;;;23.83;100.00;100353.15;105702;1253;72657;-43
2023/07/07 00:31:01;;;;;;;13.60;5.60;;;;;;;23.82;100.00;100356.91;105658;1257;60684;-41
2023/07/07 00:33:31;;;;;;;11.40;5.20;;;;;;;23.78;100.00;100353.66;105791;1258;60346;-40
2023/07/07 00:35:59;;;;;;;21.70;5.60;;;;;;;23.72;100.00;100354.88;105684;1260;73851;-44
2023/07/07 00:38:26;;;;;;;10.30;5.30;;;;;;;23.66;100.00;100392.28;105682;1256;63927;-44
2023/07/07 00:40:54;;;;;;;15.70;6.10;;;;;;;23.59;100.00;100418.91;105713;1254;71439;-43
2023/07/07 00:43:22;;;;;;;14.10;6.10;;;;;;;23.49;100.00;100445.29;105487;1256;60538;-45
2023/07/07 00:45:50;;;;;;;14.50;6.10;;;;;;;23.41;100.00;100459.31;105494;1253;60328;-44
2023/07/07 00:48:23;;;;;;;13.10;6.10;;;;;;;23.34;100.00;100464.86;105627;1253;72618;-42
2023/07/07 00:50:59;;;;;;;13.40;5.70;;;;;;;23.28;100.00;100475.36;105678;1253;63776;-44
2023/07/07 00:53:27;;;;;;;10.50;5.50;;;;;;;23.20;100.00;100487.45;105671;1254;71883;-41
2023/07/07 00:55:58;;;;;;;16.40;6.80;;;;;;;23.17;100.00;100514.50;105614;1260;60496;-44
2023/07/07 00:58:25;;;;;;;14.40;6.60;;;;;;;23.14;100.00;100542.85;105680;1253;60355;-41
2023/07/07 01:01:02;;;;;;;18.90;6.50;;;;;;;23.10;100.00;100559.80;105672;1253;73835;-43
2023/07/07 01:03:37;;;;;;;13.60;6.30;;;;;;;23.06;100.00;100579.46;105646;1253;65344;-42
2023/07/07 01:06:06;;;;;;;7.90;5.80;;;;;;;23.03;100.00;100589.70;105687;1254;71444;-45
2023/07/07 01:08:35;;;;;;;14.80;6.60;;;;;;;23.00;100.00;100601.85;105714;1257;60540;-44
2023/07/07 01:11:02;;;;;;;8.80;5.50;;;;;;;22.98;100.00;100610.45;105740;1255;60423;-43
2023/07/07 01:13:30;;;;;;;10.80;6.10;;;;;;;22.94;100.00;100611.03;105845;1253;72594;-44
2023/07/07 01:16:28;;;;;;;11.70;6.10;;;;;;;22.92;100.00;100620.00;105597;1260;63918;-42
2023/07/07 01:19:19;;;;;;;18.80;6.50;;;;;;;22.88;100.00;100637.52;105658;1253;71888;-44
2023/07/07 01:22:24;;;;;;;15.00;5.50;;;;;;;22.83;100.00;100659.65;105646;1254;60564;-44
2023/07/07 01:25:23;;;;;;;11.70;5.70;;;;;;;22.76;100.00;100689.67;105642;1260;60332;-43
2023/07/07 01:28:08;;;;;;;19.90;5.60;;;;;;;22.69;100.00;100706.82;105619;1259;73799;-44
2023/07/07 01:30:42;;;;;;;5.90;4.80;;;;;;;22.64;100.00;100719.80;105742;1258;63958;-44
2023/07/07 01:33:12;;;;;;;13.10;5.60;;;;;;;22.59;100.00;100723.64;105612;1253;72784;-44
2023/07/07 01:35:39;;;;;;;10.50;5.30;;;;;;;22.55;100.00;100727.77;105674;1254;61630;-45
2023/07/07 01:38:32;;;;;;;7.50;5.40;;;;;;;22.49;100.00;100734.62;105653;1255;60433;-43
2023/07/07 01:41:30;;;;;;;10.40;5.50;;;;;;;22.44;100.00;100748.30;105601;1254;71969;-43
2023/07/07 01:44:30;;;;;;;16.60;5.70;;;;;;;22.37;100.00;100759.09;105657;1253;66108;-43
2023/07/07 01:47:00;;;;;;;9.80;4.90;;;;;;;22.32;100.00;100763.27;105534;1254;71944;-46
2023/07/07 01:49:32;;;;;;;6.80;5.10;;;;;;;22.28;100.00;100765.65;105653;1255;60467;-43
2023/07/07 01:52:25;;;;;;;10.00;4.50;;;;;;;22.23;100.00;100760.67;105648;1258;59334;-47
2023/07/07 01:55:08;;;;;;;6.80;4.90;;;;;;;22.19;100.00;100751.63;105700;1254;73848;-45
2023/07/07 01:57:36;;;;;;;11.70;4.20;;;;;;;22.15;100.00;100747.17;105855;1253;63944;-44
2023/07/07 02:00:05;;;;;;;12.60;4.70;;;;;;;22.11;100.00;100736.51;105644;1253;72733;-43
2023/07/07 02:02:43;;;;;;;10.10;4.20;;;;;;;22.07;100.00;100724.55;105600;1254;60770;-43
2023/07/07 02:05:12;;;;;;;11.60;4.30;;;;;;;22.05;100.00;100710.32;105682;1255;60317;-43
2023/07/07 02:07:41;;;;;;;8.40;4.30;;;;;;;22.03;100.00;100702.71;105671;1253;71617;-42
2023/07/07 02:10:09;;;;;;;6.00;4.10;;;;;;;22.03;100.00;100699.89;105694;1253;64025;-42
2023/07/07 02:12:37;;;;;;;8.30;4.30;;;;;;;22.04;100.00;100689.11;105704;1260;71399;-42
2023/07/07 02:15:06;;;;;;;8.50;4.40;;;;;;;22.04;100.00;100688.59;105609;1260;60433;-43
2023/07/07 02:17:34;;;;;;;11.10;4.80;;;;;;;22.03;100.00;100687.82;105665;1260;60529;-45
2023/07/07 02:20:03;;;;;;;7.60;5.10;;;;;;;22.01;100.00;100693.36;105614;1253;73810;-47
2023/07/07 02:22:32;;;;;;;7.20;4.40;;;;;;;22.01;100.00;100701.61;105622;1254;64010;-45
2023/07/07 02:24:59;;;;;;;5.60;4.10;;;;;;;22.00;100.00;100709.20;105664;1254;72509;-46
2023/07/07 02:27:29;;;;;;;10.70;7.00;;;;;;;22.01;100.00;100722.34;105687;1254;61614;-42
2023/07/07 02:29:57;;;;;;;11.20;6.60;;;;;;;22.01;100.00;100736.76;105699;1260;60365;-42
2023/07/07 02:32:25;;;;;;;18.20;6.10;;;;;;;21.98;100.00;100750.60;105604;1253;72667;-43
2023/07/07 02:34:56;;;;;;;6.60;4.70;;;;;;;21.96;100.00;100760.36;105705;1253;65180;-42
2023/07/07 02:37:24;;;;;;;8.20;5.20;;;;;;;21.95;100.00;100772.40;105850;1253;72647;-44
2023/07/07 02:39:54;;;;;;;8.00;4.50;;;;;;;21.94;100.00;100777.02;105638;1254;60489;-43
2023/07/07 02:42:22;;;;;;;10.00;4.70;;;;;;;21.94;100.00;100794.42;105622;1253;60537;-42
2023/07/07 02:44:49;;;;;;;4.70;4.20;;;;;;;21.94;100.00;100805.13;105597;1253;72682;-44
2023/07/07 02:47:17;;;;;;;7.00;4.40;;;;;;;21.95;100.00;100812.64;105512;1253;64031;-43
2023/07/07 02:49:45;;;;;;;7.10;4.50;;;;;;;21.96;100.00;100815.39;105511;1254;71436;-45
2023/07/07 02:52:13;;;;;;;7.30;4.30;;;;;;;21.96;100.00;100821.90;105653;1253;60792;-44
2023/07/07 02:54:41;;;;;;;13.90;4.00;;;;;;;21.95;100.00;100833.70;105676;1259;60473;-45
2023/07/07 02:57:08;;;;;;;7.20;4.20;;;;;;;21.97;100.00;100835.39;105686;1253;72648;-43
2023/07/07 02:59:36;;;;;;;13.30;3.80;;;;;;;21.98;100.00;100827.94;105648;1260;64014;-43
2023/07/07 03:02:04;;;;;;;7.40;4.00;;;;;;;22.00;100.00;100813.09;105671;1254;71649;-42
2023/07/07 03:04:33;;;;;;;5.80;4.00;;;;;;;21.98;100.00;100783.64;105729;1254;60527;-43
2023/07/07 03:07:00;;;;;;;6.40;3.70;;;;;;;21.98;100.00;100766.45;105633;1253;60380;-43
2023/07/07 03:09:28;;;;;;;8.60;4.00;;;;;;;21.99;100.00;100751.48;105702;1253;72529;-45
2023/07/07 03:11:57;;;;;;;8.80;3.40;;;;;;;21.98;100.00;100747.11;105638;1253;63491;-45
2023/07/07 03:14:26;;;;;;;10.50;3.50;;;;;;;21.99;100.00;100743.36;105671;1258;71493;-41
2023/07/07 03:16:58;;;;;;;10.70;4.20;;;;;;;22.01;100.00;100745.00;105639;1260;60557;-42
2023/07/07 03:19:34;;;;;;;7.90;3.60;;;;;;;22.04;100.00;100736.71;105651;1253;60332;-43
2023/07/07 03:22:05;;;;;;;4.30;3.30;;;;;;;22.07;100.00;100715.42;105612;1253;72908;-41
2023/07/07 03:24:38;;;;;;;12.50;3.90;;;;;;;22.12;100.00;100694.63;105643;1258;65159;-43
2023/07/07 03:27:15;;;;;;;3.80;3.50;;;;;;;22.14;100.00;100677.96;105650;1258;70815;-45
2023/07/07 03:29:43;;;;;;;5.00;3.60;;;;;;;22.16;100.00;100657.80;105672;1258;60497;-45
2023/07/07 03:32:11;;;;;;;7.10;3.70;;;;;;;22.20;100.00;100650.71;105859;1256;60432;-43
2023/07/07 03:34:42;;;;;;;7.40;3.50;;;;;;;22.22;100.00;100628.04;105685;1253;72918;-44
2023/07/07 03:37:10;;;;;;;8.70;3.50;;;;;;;22.27;100.00;100613.67;105680;1253;63300;-43
2023/07/07 03:39:38;;;;;;;8.30;3.60;;;;;;;22.33;100.00;100602.40;105668;1260;71495;-42
2023/07/07 03:42:08;;;;;;;9.30;3.70;;;;;;;22.39;100.00;100595.00;105683;1254;60440;-43
2023/07/07 03:44:37;;;;;;;5.60;4.00;;;;;;;22.49;100.00;100601.38;105742;1255;60430;-44
2023/07/07 03:47:05;;;;;;;5.80;3.80;;;;;;;22.62;100.00;100576.27;105671;1253;73048;-42
2023/07/07 03:49:33;;;;;;;8.60;4.60;;;;;;;22.73;100.00;100531.42;105658;1260;65620;-42
2023/07/07 03:52:03;;;;;;;8.00;4.60;;;;;;;22.86;100.00;100513.95;105670;1258;72718;-42
2023/07/07 03:54:31;;;;;;;7.80;4.80;;;;;;;22.95;100.00;100455.96;105752;1259;61669;-45
2023/07/07 03:56:59;;;;;;;8.80;4.90;;;;;;;23.00;100.00;100429.45;105707;1253;60487;-45
2023/07/07 03:59:27;;;;;;;6.00;4.80;;;;;;;23.08;100.00;100413.00;105732;1253;72544;-44
2023/07/07 04:01:56;;;;;;;20.20;6.10;;;;;;;23.18;100.00;100384.17;105648;1253;65292;-44
2023/07/07 04:04:24;;;;;;;8.50;3.90;;;;;;;23.19;100.00;100341.48;105679;1253;72591;-41
2023/07/07 04:06:56;;;;;;;8.20;3.80;;;;;;;23.15;100.00;100336.20;105672;1254;60782;-43
2023/07/07 04:09:24;;;;;;;3.80;3.30;;;;;;;23.12;100.00;100333.04;105718;1257;60529;-44
2023/07/07 04:11:55;;;;;;;6.60;4.60;;;;;;;23.07;100.00;100340.41;105644;1253;73784;-43
2023/07/07 04:14:26;;;;;;;6.20;4.00;;;;;;;23.04;100.00;100361.78;105661;1258;65170;-43
2023/07/07 04:16:54;;;;;;;14.80;6.00;;;;;;;23.05;100.00;100380.52;105639;1261;71384;-42
2023/07/07 04:19:25;;;;;;;8.40;5.30;;;;;;;23.10;100.00;100376.25;105624;1254;60535;-45
2023/07/07 04:21:52;;;;;;;10.10;4.50;;;;;;;23.12;100.00;100377.04;105397;1253;60451;-42
2023/07/07 04:24:23;;;;;;;8.90;5.90;;;;;;;23.13;100.00;100380.11;105642;1258;72925;-51
2023/07/07 04:26:51;;;;;;;13.20;5.20;;;;;;;23.17;100.00;100379.66;105647;1253;63991;-43
2023/07/07 04:29:19;;;;;;;5.60;3.50;;;;;;;23.22;100.00;100381.05;105660;1256;71681;-43
2023/07/07 04:31:48;;;;;;;3.40;3.10;;;;;;;23.23;100.00;100373.60;105661;1258;60585;-41
2023/07/07 04:34:16;;;;;;;6.10;4.10;;;;;;;23.23;100.00;100372.55;105673;1258;60359;-42
2023/07/07 04:36:44;;;;;;;15.10;7.90;;;;;;;23.23;100.00;100380.11;105676;1258;73851;-43
2023/07/07 04:39:12;;;;;;;6.00;4.20;;;;;;;23.25;100.00;100394.74;105673;1255;63923;-44
2023/07/07 04:41:40;;;;;;;9.80;4.80;;;;;;;23.28;100.00;100385.27;105641;1257;71458;-44
2023/07/07 04:44:09;;;;;;;10.20;5.10;;;;;;;23.29;100.00;100368.65;105702;1255;60477;-42
2023/07/07 04:46:37;;;;;;;14.30;7.00;;;;;;;23.28;100.00;100363.93;105623;1254;60355;-42
2023/07/07 04:49:06;;;;;;;10.90;5.10;;;;;;;23.22;100.00;100359.91;105682;1258;73776;-43
2023/07/07 04:51:36;;;;;;;9.20;3.40;;;;;;;23.16;100.00;100361.59;105703;1254;63997;-43
2023/07/07 04:54:04;;;;;;;9.90;3.30;;;;;;;23.12;100.00;100374.19;105615;1258;70481;-45
2023/07/07 04:56:35;;;;;;;15.70;3.50;;;;;;;23.08;100.00;100381.88;105624;1256;60528;-45
2023/07/07 04:59:04;;;;;;;8.20;3.30;;;;;;;23.02;100.00;100396.77;105725;1253;60507;-44
2023/07/07 05:01:32;;;;;;;3.80;3.30;;;;;;;22.95;100.00;100452.67;105653;1254;73796;-43
2023/07/07 05:04:01;;;;;;;8.10;3.30;;;;;;;22.82;100.00;100514.94;105706;1253;65251;-43
2023/07/07 05:06:32;;;;;;;12.40;3.90;;;;;;;22.68;100.00;100573.09;105628;1256;71391;-43
2023/07/07 05:09:01;;;;;;;20.50;5.60;;;;;;;22.56;100.00;100627.83;105699;1256;60509;-44
2023/07/07 05:11:30;;;;;;;11.50;6.60;;;;;;;22.43;100.00;100704.80;105657;1253;60488;-41
2023/07/07 05:13:58;;;;;;;14.20;5.50;;;;;;;22.29;100.00;100793.86;105660;1258;73856;-42
2023/07/07 05:16:32;;;;;;;8.80;4.90;;;;;;;22.20;100.00;100858.38;105608;1258;63991;-44
2023/07/07 05:19:00;;;;;;;8.80;5.10;;;;;;;22.17;100.00;100899.39;105662;1256;71423;-42
2023/07/07 05:21:28;;;;;;;11.80;5.30;;;;;;;22.15;100.00;100902.29;105696;1257;60985;-45
2023/07/07 05:23:57;;;;;;;9.80;5.00;;;;;;;22.13;100.00;100905.07;105812;1253;60512;-43
2023/07/07 05:26:28;;;;;;;6.20;4.10;;;;;;;22.11;100.00;100917.45;105715;1258;72162;-43
2023/07/07 05:29:01;;;;;;;8.40;4.20;;;;;;;22.07;100.00;100924.66;105729;1254;64066;-44
2023/07/07 05:31:28;;;;;;;6.30;3.90;;;;;;;22.05;100.00;100932.89;105687;1256;71372;-43
2023/07/07 05:33:57;;;;;;;5.70;3.70;;;;;;;22.06;100.00;100934.27;105616;1258;61623;-45
2023/07/07 05:36:25;;;;;;;8.90;3.00;;;;;;;22.08;100.00;100918.51;105689;1258;60523;-43
2023/07/07 05:38:53;;;;;;;5.00;2.90;;;;;;;22.09;100.00;100897.53;105690;1255;72736;-41
2023/07/07 05:41:21;;;;;;;7.10;3.00;;;;;;;22.10;100.00;100886.95;105643;1258;65224;-42
2023/07/07 05:43:49;;;;;;;6.80;2.80;;;;;;;22.08;100.00;100887.04;105674;1256;71866;-42
2023/07/07 05:46:18;;;;;;;7.00;2.90;;;;;;;22.06;100.00;100887.89;105683;1253;60426;-43
2023/07/07 05:48:46;;;;;;;5.10;2.50;;;;;;;22.06;100.00;100897.38;105877;1253;60513;-45
2023/07/07 05:51:16;;;;;;;5.70;3.30;;;;;;;22.06;100.00;100890.48;105756;1253;72430;-44
2023/07/07 05:53:44;;;;;;;4.70;3.30;;;;;;;22.07;100.00;100874.65;105662;1258;63422;-43
2023/07/07 05:56:22;;;;;;;6.60;2.90;;;;;;;22.07;100.00;100850.94;105638;1258;71460;-41
2023/07/07 05:58:54;;;;;;;3.50;3.00;;;;;;;22.05;100.00;100834.54;105660;1258;61623;-42
2023/07/07 06:01:22;;;;;;;6.00;3.40;;;;;;;22.03;100.00;100811.65;105676;1258;60451;-41
2023/07/07 06:03:50;;;;;;;8.10;3.50;;;;;;;21.98;100.00;100792.09;105683;1258;72943;-43
2023/07/07 06:06:18;;;;;;;6.10;3.80;;;;;;;21.67;100.00;100845.04;105659;1258;64049;-43
2023/07/07 06:08:46;;;;;;;3.80;3.30;;;;;;;21.28;100.00;100873.02;105614;1258;71910;-43
2023/07/07 06:11:14;;;;;;;6.80;3.50;;;;;;;20.99;100.00;100866.58;105635;1253;61655;-41
2023/07/07 06:13:42;;;;;;;9.10;3.70;;;;;;;20.85;100.00;100851.60;105641;1258;60617;-43
2023/07/07 06:16:10;;;;;;;4.70;3.20;;;;;;;20.79;100.00;100840.14;105610;1258;73858;-41
2023/07/07 06:18:39;;;;;;;6.70;3.30;;;;;;;20.75;100.00;100822.10;105655;1258;63963;-42
2023/07/07 06:21:07;;;;;;;5.40;3.40;;;;;;;20.78;100.00;100788.14;105628;1258;71397;-44
2023/07/07 06:23:36;;;;;;;6.30;3.40;;;;;;;20.85;100.00;100779.00;105387;1259;60621;-44
2023/07/07 06:26:03;;;;;;;4.20;3.20;;;;;;;20.88;100.00;100753.71;105724;1258;60455;-44
2023/07/07 06:28:31;;;;;;;4.80;3.60;;;;;;;20.94;100.00;100740.07;105754;1253;72649;-45
2023/07/07 06:30:59;;;;;;;7.20;3.60;;;;;;;21.03;100.00;100723.39;105431;1254;380304;-43
2023/07/07 06:35:33;;;;;;;4.10;3.70;;;;;;;21.31;100.00;100741.08;102722;1292;600120;-43
2023/07/07 06:38:01;;;;;;;4.30;3.60;;;;;;;21.48;100.00;100723.73;105081;1269;60927;-43
2023/07/07 06:40:29;;;;;;;15.60;4.00;;;;;;;21.75;100.00;100720.79;104963;1268;59263;-41
2023/07/07 06:42:58;;;;;;;5.60;3.70;;;;;;;22.10;100.00;100718.77;104878;1270;72166;-42
2023/07/07 06:45:26;;;;;;;7.80;3.30;;;;;;;22.57;100.00;100723.41;104919;1267;63729;-44
2023/07/07 06:47:54;;;;;;;4.40;3.40;;;;;;;23.11;100.00;100727.09;104872;1268;71793;-42
2023/07/07 06:50:35;;;;;;;4.20;3.80;;;;;;;23.63;100.00;100741.05;105034;1268;219241;-44
2023/07/07 06:53:03;;;;;;;6.30;3.70;;;;;;;24.13;100.00;100818.33;105255;1267;60043;-42
2023/07/07 06:55:31;;;;;;;7.20;3.40;;;;;;;24.51;100.00;100879.17;105303;1260;70994;-44
2023/07/07 06:57:59;;;;;;;4.10;3.70;;;;;;;24.82;100.00;100839.45;105287;1264;63304;-48
2023/07/07 07:00:26;;;;;;;7.10;4.00;;;;;;;25.09;100.00;100760.48;105258;1260;71456;-42
2023/07/07 07:02:54;;;;;;;5.10;4.00;;;;;;;25.34;100.00;100664.34;105195;1260;61736;-46
2023/07/07 07:05:22;;;;;;;6.30;3.70;;;;;;;25.54;100.00;100571.11;105932;1256;59526;-44
2023/07/07 07:07:50;;;;;;;10.10;4.10;;;;;;;25.73;100.00;100530.73;105900;1251;72852;-44
2023/07/07 07:10:18;;;;;;;4.00;3.60;;;;;;;25.81;100.00;100398.45;105937;1256;65352;-44
2023/07/07 07:12:48;;;;;;;6.70;4.10;;;;;;;25.78;100.00;100341.82;105895;1256;71929;-42
2023/07/07 07:15:16;;;;;;;5.50;4.40;;;;;;;25.67;100.00;100351.94;105926;1256;60492;-43
2023/07/07 07:17:44;;;;;;;11.40;4.10;;;;;;;25.61;100.00;100348.73;105824;1256;59523;-42
2023/07/07 07:20:13;;;;;;;4.80;4.30;;;;;;;25.64;100.00;100378.00;105862;1253;71788;-43
2023/07/07 07:22:40;;;;;;;9.30;4.60;;;;;;;25.71;100.00;100411.66;105666;1258;64126;-45
2023/07/07 07:25:08;;;;;;;7.00;4.40;;;;;;;25.97;100.00;100456.72;105810;1256;71378;-44
2023/07/07 07:27:37;;;;;;;7.00;4.30;;;;;;;26.41;100.00;100452.15;105894;1254;60369;-44
2023/07/07 08:20:55;;;;;;;;;;;;;;;30.34;100.00;100342.83;102946;1290;600356;-43
2023/07/07 08:23:24;;;;;;;9.60;5.90;;;;;;;30.30;100.00;100351.38;105098;1266;59295;-49
2023/07/07 08:25:52;;;;;;;12.50;6.30;;;;;;;30.40;100.00;100350.38;104809;1264;59972;-49
2023/07/07 08:28:23;;;;;;;13.00;5.60;;;;;;;30.57;100.00;100333.30;105502;1257;70957;-46
2023/07/07 08:30:50;;;;;;;12.00;5.60;;;;;;;30.68;100.00;100334.85;105478;1257;63993;-43
2023/07/07 08:33:18;;;;;;;15.20;6.10;;;;;;;30.80;100.00;100352.85;105479;1260;71492;-46
2023/07/07 08:35:46;;;;;;;30.30;6.30;;;;;;;30.98;96.61;100331.36;105333;1260;353918;-44
2023/07/07 08:38:14;;;;;;;23.80;5.80;;;;;;;31.16;82.03;100318.05;105603;1254;59350;-44
2023/07/07 08:40:47;;;;;;;21.80;5.10;;;;;;;31.31;75.39;100303.44;105622;1254;70978;-45
2023/07/07 08:43:15;;;;;;;16.80;4.90;;;;;;;31.40;68.02;100255.90;105634;1260;65202;-45
2023/07/07 08:46:05;;;;;;;21.30;5.70;;;;;;;31.45;65.24;100255.61;105605;1256;71434;-45
2023/07/07 08:48:57;;;;;;;18.30;5.80;;;;;;;31.43;67.95;100313.39;105701;1260;60169;-43
2023/07/07 08:51:30;;;;;;;22.50;6.10;;;;;;;31.54;67.62;100310.36;105641;1260;59740;-45
2023/07/07 08:54:17;;;;;;;16.50;5.50;;;;;;;31.65;68.43;100324.11;105613;1261;71184;-44
2023/07/07 08:56:50;;;;;;;24.60;5.50;;;;;;;31.80;66.62;100298.90;105637;1257;64092;-45
2023/07/07 08:59:45;;;;;;;20.10;5.30;;;;;;;31.83;67.51;100318.12;105610;1258;71406;-45
2023/07/07 09:02:49;;;;;;;17.10;5.90;;;;;;;31.84;64.04;100276.21;105588;1257;60289;-45
2023/07/07 09:05:20;;;;;;;11.80;5.00;;;;;;;31.86;66.81;100337.58;105692;1254;59969;-43
2023/07/07 09:07:57;;;;;;;13.80;5.00;;;;;;;32.03;64.07;100284.61;105632;1254;71805;-45
2023/07/07 09:10:31;;;;;;;11.60;4.50;;;;;;;32.25;59.39;100205.84;105539;1257;64039;-44
2023/07/07 09:13:03;;;;;;;16.20;4.60;;;;;;;32.42;55.03;100087.31;105555;1256;71356;-44
2023/07/07 09:15:37;;;;;;;11.90;4.70;;;;;;;32.41;56.09;100168.61;105625;1260;59803;-44
2023/07/07 09:18:26;;;;;;;14.20;4.90;;;;;;;32.43;55.85;100169.66;105589;1258;59560;-42
2023/07/07 09:20:56;;;;;;;8.30;5.20;;;;;;;32.52;56.68;100219.55;105588;1257;71768;-45
2023/07/07 09:23:27;;;;;;;15.00;5.90;;;;;;;32.57;57.15;100229.48;105553;1262;63940;-46
2023/07/07 09:25:59;;;;;;;10.70;4.70;;;;;;;32.68;57.53;100239.52;105578;1256;72621;-44
2023/07/07 09:28:28;;;;;;;7.70;4.80;;;;;;;32.88;54.77;100136.17;105585;1257;60124;-45
2023/07/07 09:30:58;;;;;;;6.10;4.90;;;;;;;32.99;54.89;100167.23;105583;1260;59798;-45
2023/07/07 09:33:26;;;;;;;13.40;4.90;;;;;;;32.99;54.25;100139.77;105539;1256;73045;-42
2023/07/07 09:36:12;;;;;;;11.90;5.00;;;;;;;32.97;53.56;100117.11;105506;1256;63532;-44
2023/07/07 09:38:47;;;;;;;11.50;4.30;;;;;;;33.03;53.44;100126.23;105546;1256;71446;-43
2023/07/07 09:41:47;;;;;;;11.10;5.30;;;;;;;33.31;52.05;100047.70;105516;1261;59732;-43
2023/07/07 09:44:14;;;;;;;6.00;4.90;;;;;;;33.46;52.31;100076.23;105574;1261;59724;-46
2023/07/07 09:47:05;;;;;;;13.10;5.40;;;;;;;33.62;53.24;100134.23;105497;1262;72111;-44
2023/07/07 09:49:49;;;;;;;7.20;4.40;;;;;;;33.91;51.05;99998.89;105587;1256;64428;-46
2023/07/07 09:52:36;;;;;;;14.70;4.80;;;;;;;34.09;49.50;99901.45;105601;1256;72689;-44
2023/07/07 09:55:26;;;;;;;11.00;4.40;;;;;;;34.19;48.75;99863.64;105601;1258;59743;-44
2023/07/07 09:58:05;;;;;;;4.80;3.70;;;;;;;34.25;48.26;99851.86;105548;1262;59573;-45
2023/07/07 10:00:34;;;;;;;12.70;4.20;;;;;;;34.26;47.94;99829.32;105630;1256;71823;-44
2023/07/07 10:03:42;;;;;;;11.90;3.90;;;;;;;34.32;47.67;99819.42;105467;1262;65188;-44
2023/07/07 10:06:22;;;;;;;16.80;3.90;;;;;;;34.56;46.94;99771.05;105520;1260;72679;-45
2023/07/07 10:08:50;;;;;;;8.80;3.60;;;;;;;34.70;45.05;99571.80;105499;1262;59743;-46
2023/07/07 10:11:22;;;;;;;8.10;3.60;;;;;;;34.63;45.44;99629.71;105530;1257;59605;-47
2023/07/07 10:13:53;;;;;;;6.80;4.00;;;;;;;34.52;44.87;99600.35;105515;1256;71795;-45
2023/07/07 10:16:30;;;;;;;11.20;3.70;;;;;;;34.13;44.32;99539.45;105569;1259;65140;-43
2023/07/07 10:19:07;;;;;;;11.90;3.30;;;;;;;33.60;44.23;99576.48;105514;1257;71011;-45
2023/07/07 10:21:35;;;;;;;6.50;3.60;;;;;;;33.07;44.78;99665.57;105390;1259;59875;-49
2023/07/07 10:24:03;;;;;;;11.20;3.60;;;;;;;32.66;45.20;99728.42;105298;1262;59570;-46
2023/07/07 10:26:51;;;;;;;7.10;3.50;;;;;;;32.34;46.41;99874.08;105340;1263;73009;-46
2023/07/07 10:29:26;;;;;;;9.70;4.10;;;;;;;32.14;47.40;99968.45;105307;1264;63973;-43
2023/07/07 10:31:54;;;;;;;4.60;3.80;;;;;;;31.95;47.72;100022.10;105513;1262;72646;-45
2023/07/07 10:34:46;;;;;;;10.60;4.20;;;;;;;31.78;49.04;100130.31;105492;1259;59758;-44
2023/07/07 10:37:22;;;;;;;9.70;3.90;;;;;;;31.66;50.03;100194.77;105501;1257;59763;-43
2023/07/07 10:39:55;;;;;;;14.90;4.50;;;;;;;31.62;50.60;100220.73;105550;1258;72957;-43
2023/07/07 10:42:24;;;;;;;8.10;4.00;;;;;;;31.60;51.15;100218.09;105531;1261;65152;-43
2023/07/07 10:44:57;;;;;;;6.80;3.60;;;;;;;31.57;50.94;100171.95;105484;1259;72624;-43
2023/07/07 10:47:32;;;;;;;5.80;3.50;;;;;;;31.46;51.92;100204.48;105515;1258;59736;-43
2023/07/07 10:50:00;;;;;;;9.20;3.90;;;;;;;31.43;51.96;100172.52;105517;1258;60290;-43
2023/07/07 10:52:51;;;;;;;7.20;3.60;;;;;;;31.48;52.36;100172.48;105549;1260;70878;-44
2023/07/07 10:55:37;;;;;;;7.10;3.60;;;;;;;31.81;52.48;100164.77;105527;1257;63995;-44
2023/07/07 10:58:46;;;;;;;5.80;3.50;;;;;;;32.12;51.48;100094.22;105526;1259;71096;-46
2023/07/07 11:01:24;;;;;;;22.00;4.70;;;;;;;32.39;52.03;100115.05;105073;1264;59851;-43
2023/07/07 11:04:21;;;;;;;3.70;3.10;;;;;;;32.83;51.64;100075.78;105472;1261;59664;-44
2023/07/07 11:07:01;;;;;;;10.30;4.40;;;;;;;33.37;51.50;100059.36;105565;1257;73066;-46
2023/07/07 11:09:42;;;;;;;13.50;4.50;;;;;;;33.77;51.22;100046.61;105510;1262;63949;-46
2023/07/07 11:12:14;;;;;;;9.10;3.60;;;;;;;34.12;48.82;99880.11;105493;1258;71800;-46
2023/07/07 11:14:52;;;;;;;5.10;3.30;;;;;;;34.35;48.68;99886.23;105488;1257;62507;-45
2023/07/07 11:17:28;;;;;;;8.00;3.10;;;;;;;34.57;48.42;99886.11;105502;1262;59649;-45
2023/07/07 11:19:56;;;;;;;13.70;3.60;;;;;;;34.71;47.21;99756.88;105580;1257;71763;-44
2023/07/07 11:22:52;;;;;;;5.60;3.20;;;;;;;34.74;47.39;99815.59;105520;1258;65175;-47
2023/07/07 11:25:25;;;;;;;12.10;3.90;;;;;;;34.85;46.91;99771.66;105525;1260;72765;-43
2023/07/07 11:28:02;;;;;;;6.80;4.10;;;;;;;34.95;47.44;99830.55;105531;1258;59731;-45
2023/07/07 11:30:39;;;;;;;8.30;4.20;;;;;;;35.20;48.03;99881.27;105513;1258;59557;-45
2023/07/07 11:33:13;;;;;;;8.40;3.40;;;;;;;35.37;45.85;99676.16;105549;1257;71809;-44
2023/07/07 11:36:10;;;;;;;6.90;3.10;;;;;;;35.40;44.20;99507.42;105547;1258;63934;-46
2023/07/07 11:38:50;;;;;;;5.60;3.20;;;;;;;35.44;43.66;99466.98;105629;1260;72614;-44
2023/07/07 11:41:52;;;;;;;5.50;3.00;;;;;;;35.49;42.02;99289.06;105488;1262;60040;-44
2023/07/07 11:44:56;;;;;;;10.00;3.90;;;;;;;35.47;41.59;99248.70;105519;1262;59624;-45
2023/07/07 11:47:56;;;;;;;3.60;3.00;;;;;;;35.65;41.71;99295.65;105525;1262;73036;-46
2023/07/07 11:50:49;;;;;;;6.40;3.00;;;;;;;35.94;40.64;99179.34;105536;1262;64046;-43
2023/07/07 11:53:59;;;;;;;10.70;3.00;;;;;;;36.07;37.80;98869.13;105490;1262;72245;-45
2023/07/07 11:56:37;;;;;;;5.50;3.10;;;;;;;36.06;38.51;98944.60;105177;1264;59734;-44
2023/07/07 11:59:09;;;;;;;7.30;2.90;;;;;;;35.97;38.65;98976.89;105588;1260;59668;-44
2023/07/07 12:01:38;;;;;;;8.60;3.10;;;;;;;35.84;40.41;99162.58;105600;1254;71804;-45
2023/07/07 12:04:17;;;;;;;3.60;2.70;;;;;;;35.90;40.80;99261.00;105666;1255;63996;-46
2023/07/07 12:06:52;;;;;;;4.20;2.80;;;;;;;35.96;39.05;99071.95;105606;1257;72628;-46
2023/07/07 12:09:44;;;;;;;3.10;2.60;;;;;;;35.73;39.14;99059.86;105715;1254;59997;-45
2023/07/07 12:12:46;;;;;;;5.50;3.00;;;;;;;35.37;40.34;99217.35;105637;1260;59539;-47
2023/07/07 12:15:19;;;;;;;5.40;2.60;;;;;;;35.20;40.80;99292.54;105489;1256;72986;-44
2023/07/07 12:18:12;;;;;;;4.80;3.40;;;;;;;35.28;40.75;99302.65;105638;1256;64023;-49
2023/07/07 12:20:48;;;;;;;6.30;2.90;;;;;;;35.51;41.23;99347.70;105494;1254;71451;-49
2023/07/07 12:23:19;;;;;;;4.50;2.90;;;;;;;35.57;41.19;99361.73;105456;1255;59722;-49
2023/07/07 12:25:47;;;;;;;8.20;2.90;;;;;;;35.58;41.10;99350.68;105626;1255;59981;-44
2023/07/07 12:28:15;;;;;;;4.40;3.00;;;;;;;35.61;40.63;99296.64;105615;1255;72998;-44
2023/07/07 12:30:45;;;;;;;19.10;3.40;;;;;;;35.44;41.10;99362.76;105665;1254;64061;-43